sensor_id;sensor_type;location;lat;lon;timestamp;pressure;altitude;pressure_sealevel;temperature;humidity
4199;BME280;2113;50.946;14.610;2023-08-24T00:01:48;97468.47;;;14.51;74.16
4199;BME280;2113;50.946;14.610;2023-08-24T00:04:17;97472.69;;;14.65;73.69
4199;BME280;2113;50.946;14.610;2023-08-24T00:06:45;97476.44;;;14.51;74.03
4199;BME280;2113;50.946;14.610;2023-08-24T00:09:13;97475.03;;;14.48;74.20
4199;BME280;2113;50.946;14.610;2023-08-24T00:11:42;97473.50;;;14.66;73.36
4199;BME280;2113;50.946;14.610;2023-08-24T00:14:10;97478.88;;;14.59;73.34
4199;BME280;2113;50.946;14.610;2023-08-24T00:16:42;97475.63;;;14.44;73.95
4199;BME280;2113;50.946;14.610;2023-08-24T00:19:11;97472.78;;;14.52;73.63
4199;BME280;2113;50.946;14.610;2023-08-24T00:21:39;97480.84;;;14.70;72.75
4199;BME280;2113;50.946;14.610;2023-08-24T00:24:08;97480.31;;;14.42;73.25
4199;BME280;2113;50.946;14.610;2023-08-24T00:26:36;97484.25;;;14.33;73.78
4199;BME280;2113;50.946;14.610;2023-08-24T00:29:05;97478.50;;;14.42;73.48
4199;BME280;2113;50.946;14.610;2023-08-24T00:31:33;97487.13;;;14.24;74.13
4199;BME280;2113;50.946;14.610;2023-08-24T00:34:04;97482.69;;;14.05;74.51
4199;BME280;2113;50.946;14.610;2023-08-24T00:36:32;97487.78;;;14.07;74.80
4199;BME280;2113;50.946;14.610;2023-08-24T00:39:01;97478.88;;;13.74;75.70
4199;BME280;2113;50.946;14.610;2023-08-24T00:41:30;97488.03;;;13.79;75.88
4199;BME280;2113;50.946;14.610;2023-08-24T00:43:58;97485.81;;;13.62;76.42
4199;BME280;2113;50.946;14.610;2023-08-24T00:46:27;97485.41;;;13.65;76.43
4199;BME280;2113;50.946;14.610;2023-08-24T00:48:58;97476.41;;;13.66;76.60
4199;BME280;2113;50.946;14.610;2023-08-24T00:51:29;97478.81;;;14.01;75.37
4199;BME280;2113;50.946;14.610;2023-08-24T00:53:57;97475.59;;;13.86;75.41
4199;BME280;2113;50.946;14.610;2023-08-24T00:56:25;97473.56;;;13.81;75.75
4199;BME280;2113;50.946;14.610;2023-08-24T00:58:54;97477.44;;;13.79;75.74
4199;BME280;2113;50.946;14.610;2023-08-24T01:01:22;97473.75;;;13.73;75.97
4199;BME280;2113;50.946;14.610;2023-08-24T01:03:54;97469.72;;;13.57;76.64
4199;BME280;2113;50.946;14.610;2023-08-24T01:06:22;97467.28;;;13.62;76.30
4199;BME280;2113;50.946;14.610;2023-08-24T01:08:52;97471.75;;;13.68;76.40
4199;BME280;2113;50.946;14.610;2023-08-24T01:11:26;97474.59;;;13.73;75.68
4199;BME280;2113;50.946;14.610;2023-08-24T01:14:04;97471.75;;;13.82;75.58
4199;BME280;2113;50.946;14.610;2023-08-24T01:16:38;97473.78;;;13.66;75.84
4199;BME280;2113;50.946;14.610;2023-08-24T01:19:25;97470.13;;;13.54;76.26
4199;BME280;2113;50.946;14.610;2023-08-24T01:22:01;97476.63;;;13.38;76.96
4199;BME280;2113;50.946;14.610;2023-08-24T01:24:40;97477.06;;;13.35;77.11
4199;BME280;2113;50.946;14.610;2023-08-24T01:27:10;97470.94;;;13.48;76.78
4199;BME280;2113;50.946;14.610;2023-08-24T01:30:07;97468.69;;;13.45;76.53
4199;BME280;2113;50.946;14.610;2023-08-24T01:32:37;97470.75;;;13.43;76.53
4199;BME280;2113;50.946;14.610;2023-08-24T01:35:08;97465.44;;;13.50;76.37
4199;BME280;2113;50.946;14.610;2023-08-24T01:37:37;97468.50;;;13.40;76.62
4199;BME280;2113;50.946;14.610;2023-08-24T01:40:10;97476.84;;;13.37;76.81
4199;BME280;2113;50.946;14.610;2023-08-24T01:42:49;97475.44;;;13.28;77.28
4199;BME280;2113;50.946;14.610;2023-08-24T01:45:22;97476.63;;;13.32;77.20
4199;BME280;2113;50.946;14.610;2023-08-24T01:47:53;97464.41;;;13.31;77.62
4199;BME280;2113;50.946;14.610;2023-08-24T01:50:22;97470.75;;;13.43;77.05
4199;BME280;2113;50.946;14.610;2023-08-24T01:52:51;97466.84;;;13.39;76.77
4199;BME280;2113;50.946;14.610;2023-08-24T01:55:20;97468.91;;;13.43;76.27
4199;BME280;2113;50.946;14.610;2023-08-24T01:57:50;97467.06;;;13.31;76.87
4199;BME280;2113;50.946;14.610;2023-08-24T02:00:19;97461.16;;;13.22;77.39
4199;BME280;2113;50.946;14.610;2023-08-24T02:02:47;97470.13;;;13.21;77.52
4199;BME280;2113;50.946;14.610;2023-08-24T02:05:24;97457.09;;;13.33;77.03
4199;BME280;2113;50.946;14.610;2023-08-24T02:08:30;97445.25;;;13.29;77.09
4199;BME280;2113;50.946;14.610;2023-08-24T02:11:23;97441.16;;;13.19;77.21
4199;BME280;2113;50.946;14.610;2023-08-24T02:13:52;97443.81;;;13.06;77.93
4199;BME280;2113;50.946;14.610;2023-08-24T02:16:21;97436.91;;;13.32;76.87
4199;BME280;2113;50.946;14.610;2023-08-24T02:18:50;97437.91;;;13.31;76.95
4199;BME280;2113;50.946;14.610;2023-08-24T02:21:20;97435.69;;;13.28;77.19
4199;BME280;2113;50.946;14.610;2023-08-24T02:23:49;97430.19;;;13.36;76.31
4199;BME280;2113;50.946;14.610;2023-08-24T02:26:18;97438.34;;;13.34;76.78
4199;BME280;2113;50.946;14.610;2023-08-24T02:28:47;97434.88;;;13.27;76.74
4199;BME280;2113;50.946;14.610;2023-08-24T02:31:17;97440.75;;;13.16;77.25
4199;BME280;2113;50.946;14.610;2023-08-24T02:33:45;97446.84;;;13.16;77.00
4199;BME280;2113;50.946;14.610;2023-08-24T02:36:16;97457.88;;;13.13;77.23
4199;BME280;2113;50.946;14.610;2023-08-24T02:38:45;97447.31;;;13.20;77.02
4199;BME280;2113;50.946;14.610;2023-08-24T02:41:13;97448.31;;;13.19;77.29
4199;BME280;2113;50.946;14.610;2023-08-24T02:43:41;97450.34;;;13.24;76.95
4199;BME280;2113;50.946;14.610;2023-08-24T02:46:13;97454.25;;;13.34;76.15
4199;BME280;2113;50.946;14.610;2023-08-24T02:48:47;97457.69;;;13.22;76.90
4199;BME280;2113;50.946;14.610;2023-08-24T02:51:15;97456.88;;;13.28;76.57
4199;BME280;2113;50.946;14.610;2023-08-24T02:53:44;97459.06;;;13.17;76.63
4199;BME280;2113;50.946;14.610;2023-08-24T02:56:12;97455.22;;;13.07;77.14
4199;BME280;2113;50.946;14.610;2023-08-24T02:58:41;97453.38;;;13.14;77.23
4199;BME280;2113;50.946;14.610;2023-08-24T03:01:09;97448.50;;;13.24;76.76
4199;BME280;2113;50.946;14.610;2023-08-24T03:03:38;97444.84;;;13.18;76.71
4199;BME280;2113;50.946;14.610;2023-08-24T03:06:09;97442.19;;;13.32;76.16
4199;BME280;2113;50.946;14.610;2023-08-24T03:08:37;97446.09;;;13.36;76.14
4199;BME280;2113;50.946;14.610;2023-08-24T03:11:06;97450.13;;;13.18;76.64
4199;BME280;2113;50.946;14.610;2023-08-24T03:13:37;97446.84;;;13.16;76.58
4199;BME280;2113;50.946;14.610;2023-08-24T03:16:08;97449.72;;;13.08;77.06
4199;BME280;2113;50.946;14.610;2023-08-24T03:18:37;97454.63;;;13.11;77.20
4199;BME280;2113;50.946;14.610;2023-08-24T03:21:06;97453.78;;;13.04;77.27
4199;BME280;2113;50.946;14.610;2023-08-24T03:23:36;97444.81;;;13.05;77.62
4199;BME280;2113;50.946;14.610;2023-08-24T03:26:06;97443.81;;;13.19;77.20
4199;BME280;2113;50.946;14.610;2023-08-24T03:28:34;97435.28;;;13.24;76.86
4199;BME280;2113;50.946;14.610;2023-08-24T03:31:02;97442.59;;;13.15;77.04
4199;BME280;2113;50.946;14.610;2023-08-24T03:33:31;97446.44;;;13.00;77.79
4199;BME280;2113;50.946;14.610;2023-08-24T03:36:01;97437.47;;;12.87;77.72
4199;BME280;2113;50.946;14.610;2023-08-24T03:38:30;97443.56;;;12.95;77.82
4199;BME280;2113;50.946;14.610;2023-08-24T03:41:03;97443.56;;;12.95;76.96
4199;BME280;2113;50.946;14.610;2023-08-24T03:43:34;97442.38;;;12.90;77.33
4199;BME280;2113;50.946;14.610;2023-08-24T03:46:04;97440.72;;;12.96;77.39
4199;BME280;2113;50.946;14.610;2023-08-24T03:48:33;97435.81;;;12.80;77.67
4199;BME280;2113;50.946;14.610;2023-08-24T03:51:03;97440.72;;;12.83;78.12
4199;BME280;2113;50.946;14.610;2023-08-24T03:53:31;97432.19;;;12.94;77.20
4199;BME280;2113;50.946;14.610;2023-08-24T03:56:00;97437.47;;;12.94;77.02
4199;BME280;2113;50.946;14.610;2023-08-24T03:58:30;97431.13;;;12.82;77.57
4199;BME280;2113;50.946;14.610;2023-08-24T04:01:00;97431.75;;;12.77;77.52
4199;BME280;2113;50.946;14.610;2023-08-24T04:03:29;97442.31;;;12.71;77.61
4199;BME280;2113;50.946;14.610;2023-08-24T04:05:58;97438.03;;;12.56;78.41
4199;BME280;2113;50.946;14.610;2023-08-24T04:08:28;97438.84;;;12.57;79.01
4199;BME280;2113;50.946;14.610;2023-08-24T04:10:57;97444.34;;;12.55;79.22
4199;BME280;2113;50.946;14.610;2023-08-24T04:13:26;97443.13;;;12.64;79.30
4199;BME280;2113;50.946;14.610;2023-08-24T04:15:56;97442.31;;;12.71;78.68
4199;BME280;2113;50.946;14.610;2023-08-24T04:18:25;97448.84;;;12.75;79.02
4199;BME280;2113;50.946;14.610;2023-08-24T04:20:53;97440.31;;;12.92;78.27
4199;BME280;2113;50.946;14.610;2023-08-24T04:23:25;97453.16;;;12.96;78.11
4199;BME280;2113;50.946;14.610;2023-08-24T04:25:54;97443.97;;;12.85;78.68
4199;BME280;2113;50.946;14.610;2023-08-24T04:28:22;97441.72;;;12.88;78.61
4199;BME280;2113;50.946;14.610;2023-08-24T04:30:51;97445.84;;;13.04;77.95
4199;BME280;2113;50.946;14.610;2023-08-24T04:33:21;97444.84;;;13.12;77.72
4199;BME280;2113;50.946;14.610;2023-08-24T04:35:50;97447.47;;;13.12;77.69
4199;BME280;2113;50.946;14.610;2023-08-24T04:38:19;97443.63;;;13.21;77.77
4199;BME280;2113;50.946;14.610;2023-08-24T04:40:49;97443.59;;;13.14;78.20
4199;BME280;2113;50.946;14.610;2023-08-24T04:43:19;97454.41;;;13.13;78.41
4199;BME280;2113;50.946;14.610;2023-08-24T04:45:50;97442.38;;;13.17;78.34
4199;BME280;2113;50.946;14.610;2023-08-24T04:48:21;97442.00;;;13.27;78.36
4199;BME280;2113;50.946;14.610;2023-08-24T04:50:50;97434.25;;;13.45;77.45
4199;BME280;2113;50.946;14.610;2023-08-24T04:53:20;97441.16;;;13.46;77.44
4199;BME280;2113;50.946;14.610;2023-08-24T04:55:48;97440.56;;;13.51;77.33
4199;BME280;2113;50.946;14.610;2023-08-24T04:58:16;97437.91;;;13.64;77.17
4199;BME280;2113;50.946;14.610;2023-08-24T05:00:45;97435.00;;;13.79;76.52
4199;BME280;2113;50.946;14.610;2023-08-24T05:03:13;97437.03;;;13.90;76.19
4199;BME280;2113;50.946;14.610;2023-08-24T05:05:45;97443.13;;;13.97;75.91
4199;BME280;2113;50.946;14.610;2023-08-24T05:08:13;97442.94;;;13.92;75.82
4199;BME280;2113;50.946;14.610;2023-08-24T05:10:42;97443.09;;;14.10;75.63
4199;BME280;2113;50.946;14.610;2023-08-24T05:13:10;97438.19;;;14.14;75.73
4199;BME280;2113;50.946;14.610;2023-08-24T05:15:39;97443.47;;;14.20;75.98
4199;BME280;2113;50.946;14.610;2023-08-24T05:18:07;97435.66;;;14.39;75.58
4199;BME280;2113;50.946;14.610;2023-08-24T05:20:36;97431.53;;;14.43;75.60
4199;BME280;2113;50.946;14.610;2023-08-24T05:23:07;97443.59;;;14.52;76.17
4199;BME280;2113;50.946;14.610;2023-08-24T05:25:36;97436.41;;;14.59;75.88
4199;BME280;2113;50.946;14.610;2023-08-24T05:28:04;97430.56;;;14.75;75.72
4199;BME280;2113;50.946;14.610;2023-08-24T05:30:34;97432.13;;;14.90;75.49
4199;BME280;2113;50.946;14.610;2023-08-24T05:33:03;97433.47;;;14.99;74.85
4199;BME280;2113;50.946;14.610;2023-08-24T05:35:32;97435.69;;;15.08;74.88
4199;BME280;2113;50.946;14.610;2023-08-24T05:38:00;97446.13;;;15.28;74.33
4199;BME280;2113;50.946;14.610;2023-08-24T05:40:33;97442.72;;;15.46;73.60
4199;BME280;2113;50.946;14.610;2023-08-24T05:43:02;97442.56;;;15.66;73.45
4199;BME280;2113;50.946;14.610;2023-08-24T05:45:30;97436.69;;;15.82;73.24
4199;BME280;2113;50.946;14.610;2023-08-24T05:47:59;97437.06;;;15.86;73.27
4199;BME280;2113;50.946;14.610;2023-08-24T05:50:27;97451.63;;;16.02;73.66
4199;BME280;2113;50.946;14.610;2023-08-24T05:52:56;97443.13;;;16.11;72.84
4199;BME280;2113;50.946;14.610;2023-08-24T05:55:25;97444.09;;;16.17;73.73
4199;BME280;2113;50.946;14.610;2023-08-24T05:57:57;97448.06;;;16.26;72.97
4199;BME280;2113;50.946;14.610;2023-08-24T06:00:26;97448.69;;;16.28;73.01
4199;BME280;2113;50.946;14.610;2023-08-24T06:02:54;97433.13;;;16.43;72.55
4199;BME280;2113;50.946;14.610;2023-08-24T06:05:23;97439.28;;;16.56;72.29
4199;BME280;2113;50.946;14.610;2023-08-24T06:07:51;97435.31;;;16.65;73.82
4199;BME280;2113;50.946;14.610;2023-08-24T06:10:20;97442.09;;;16.79;73.63
4199;BME280;2113;50.946;14.610;2023-08-24T06:12:49;97432.06;;;16.93;73.38
4199;BME280;2113;50.946;14.610;2023-08-24T06:15:19;97427.16;;;17.20;72.17
4199;BME280;2113;50.946;14.610;2023-08-24T06:17:51;97427.72;;;17.34;71.99
4199;BME280;2113;50.946;14.610;2023-08-24T06:20:19;97423.44;;;17.44;72.17
4199;BME280;2113;50.946;14.610;2023-08-24T06:22:48;97423.22;;;17.57;69.63
4199;BME280;2113;50.946;14.610;2023-08-24T06:25:18;97429.81;;;17.67;67.77
4199;BME280;2113;50.946;14.610;2023-08-24T06:27:47;97416.53;;;17.78;67.38
4199;BME280;2113;50.946;14.610;2023-08-24T06:30:16;97422.78;;;17.84;67.51
4199;BME280;2113;50.946;14.610;2023-08-24T06:32:45;97415.84;;;17.83;67.09
4199;BME280;2113;50.946;14.610;2023-08-24T06:35:14;97419.28;;;17.95;66.44
4199;BME280;2113;50.946;14.610;2023-08-24T06:37:42;97418.78;;;18.10;66.04
4199;BME280;2113;50.946;14.610;2023-08-24T06:40:11;97406.66;;;18.31;63.78
4199;BME280;2113;50.946;14.610;2023-08-24T06:42:42;97417.56;;;18.41;63.80
4199;BME280;2113;50.946;14.610;2023-08-24T06:45:10;97418.22;;;18.48;65.15
4199;BME280;2113;50.946;14.610;2023-08-24T06:47:40;97413.63;;;18.60;65.21
4199;BME280;2113;50.946;14.610;2023-08-24T06:50:10;97406.38;;;18.84;65.64
4199;BME280;2113;50.946;14.610;2023-08-24T06:52:39;97406.31;;;18.96;65.64
4199;BME280;2113;50.946;14.610;2023-08-24T06:55:08;97399.41;;;19.00;63.46
4199;BME280;2113;50.946;14.610;2023-08-24T06:57:37;97411.31;;;19.09;62.56
4199;BME280;2113;50.946;14.610;2023-08-24T07:00:07;97410.78;;;19.41;59.39
4199;BME280;2113;50.946;14.610;2023-08-24T07:02:36;97400.41;;;20.66;56.59
4199;BME280;2113;50.946;14.610;2023-08-24T07:05:05;97370.38;;;26.64;42.32
4199;BME280;2113;50.946;14.610;2023-08-24T07:07:37;97372.50;;;30.83;33.75
4199;BME280;2113;50.946;14.610;2023-08-24T07:10:07;97365.50;;;34.27;27.42
4199;BME280;2113;50.946;14.610;2023-08-24T07:12:35;97365.84;;;35.74;24.61
4199;BME280;2113;50.946;14.610;2023-08-24T07:15:05;97371.38;;;37.73;22.80
4199;BME280;2113;50.946;14.610;2023-08-24T07:17:34;97367.97;;;37.37;21.74
4199;BME280;2113;50.946;14.610;2023-08-24T07:20:03;97382.09;;;39.07;19.81
4199;BME280;2113;50.946;14.610;2023-08-24T07:22:33;97377.13;;;41.22;18.49
4199;BME280;2113;50.946;14.610;2023-08-24T07:25:04;97378.44;;;41.49;18.44
4199;BME280;2113;50.946;14.610;2023-08-24T07:27:33;97379.75;;;40.86;18.48
4199;BME280;2113;50.946;14.610;2023-08-24T07:30:01;97380.28;;;41.09;19.45
4199;BME280;2113;50.946;14.610;2023-08-24T07:32:52;97389.69;;;37.23;22.62
4199;BME280;2113;50.946;14.610;2023-08-24T07:35:21;97384.69;;;38.96;21.13
4199;BME280;2113;50.946;14.610;2023-08-24T07:37:52;97376.50;;;40.11;19.63
4199;BME280;2113;50.946;14.610;2023-08-24T07:40:22;97390.59;;;39.24;20.09
4199;BME280;2113;50.946;14.610;2023-08-24T07:42:55;97390.63;;;37.92;22.08
4199;BME280;2113;50.946;14.610;2023-08-24T07:45:23;97383.25;;;37.15;23.82
4199;BME280;2113;50.946;14.610;2023-08-24T07:47:52;97385.91;;;37.31;22.97
4199;BME280;2113;50.946;14.610;2023-08-24T07:50:21;97381.22;;;38.99;21.19
4199;BME280;2113;50.946;14.610;2023-08-24T07:52:50;97382.81;;;39.34;20.32
4199;BME280;2113;50.946;14.610;2023-08-24T07:55:24;97384.13;;;37.81;22.83
4199;BME280;2113;50.946;14.610;2023-08-24T07:57:53;97386.41;;;37.56;22.37
4199;BME280;2113;50.946;14.610;2023-08-24T08:00:21;97382.69;;;34.76;25.96
4199;BME280;2113;50.946;14.610;2023-08-24T08:02:51;97383.63;;;35.64;23.97
4199;BME280;2113;50.946;14.610;2023-08-24T08:05:20;97386.38;;;36.27;23.91
4199;BME280;2113;50.946;14.610;2023-08-24T08:07:49;97394.56;;;38.17;21.77
4199;BME280;2113;50.946;14.610;2023-08-24T08:10:18;97392.44;;;37.03;22.78
4199;BME280;2113;50.946;14.610;2023-08-24T08:12:50;97385.28;;;38.03;21.45
4199;BME280;2113;50.946;14.610;2023-08-24T08:15:18;97383.22;;;36.10;24.83
4199;BME280;2113;50.946;14.610;2023-08-24T08:17:46;97380.38;;;34.90;26.41
4199;BME280;2113;50.946;14.610;2023-08-24T08:20:17;97375.72;;;34.91;25.03
4199;BME280;2113;50.946;14.610;2023-08-24T08:22:46;97377.78;;;36.29;24.05
4199;BME280;2113;50.946;14.610;2023-08-24T08:25:15;97381.03;;;36.50;23.92
4199;BME280;2113;50.946;14.610;2023-08-24T08:27:44;97391.84;;;34.31;25.91
4199;BME280;2113;50.946;14.610;2023-08-24T08:30:15;97389.25;;;35.99;24.00
4199;BME280;2113;50.946;14.610;2023-08-24T08:32:43;97392.28;;;34.82;24.64
4199;BME280;2113;50.946;14.610;2023-08-24T08:35:11;97387.47;;;34.79;26.49
4199;BME280;2113;50.946;14.610;2023-08-24T08:37:39;97378.72;;;35.58;24.54
4199;BME280;2113;50.946;14.610;2023-08-24T08:40:10;97376.03;;;36.21;22.09
4199;BME280;2113;50.946;14.610;2023-08-24T08:42:39;97382.06;;;34.55;24.57
4199;BME280;2113;50.946;14.610;2023-08-24T08:45:09;97385.81;;;35.31;23.89
4199;BME280;2113;50.946;14.610;2023-08-24T08:47:39;97380.03;;;35.92;22.85
4199;BME280;2113;50.946;14.610;2023-08-24T08:50:09;97375.59;;;36.19;22.25
4199;BME280;2113;50.946;14.610;2023-08-24T08:52:38;97384.44;;;34.20;25.16
4199;BME280;2113;50.946;14.610;2023-08-24T08:55:06;97384.72;;;32.23;27.95
4199;BME280;2113;50.946;14.610;2023-08-24T08:57:39;97392.47;;;32.12;27.01
4199;BME280;2113;50.946;14.610;2023-08-24T09:00:11;97384.66;;;33.45;25.38
4199;BME280;2113;50.946;14.610;2023-08-24T09:02:44;97373.00;;;35.07;23.05
4199;BME280;2113;50.946;14.610;2023-08-24T09:05:14;97367.94;;;36.28;21.62
4199;BME280;2113;50.946;14.610;2023-08-24T09:07:43;97375.06;;;34.69;23.96
4199;BME280;2113;50.946;14.610;2023-08-24T09:10:12;97367.44;;;35.75;24.08
4199;BME280;2113;50.946;14.610;2023-08-24T09:12:41;97364.84;;;37.81;19.99
4199;BME280;2113;50.946;14.610;2023-08-24T09:15:10;97357.97;;;36.55;21.76
4199;BME280;2113;50.946;14.610;2023-08-24T09:17:43;97359.19;;;35.31;23.39
4199;BME280;2113;50.946;14.610;2023-08-24T09:20:14;97361.34;;;35.10;25.00
4199;BME280;2113;50.946;14.610;2023-08-24T09:22:42;97367.47;;;33.56;25.89
4199;BME280;2113;50.946;14.610;2023-08-24T09:25:11;97345.47;;;35.75;23.06
4199;BME280;2113;50.946;14.610;2023-08-24T09:31:35;97352.38;;;34.08;26.17
4199;BME280;2113;50.946;14.610;2023-08-24T09:34:05;97351.22;;;32.05;27.28
4199;BME280;2113;50.946;14.610;2023-08-24T09:36:34;97349.81;;;34.64;24.70
4199;BME280;2113;50.946;14.610;2023-08-24T09:39:04;97344.78;;;34.66;24.46
4199;BME280;2113;50.946;14.610;2023-08-24T09:41:37;97351.56;;;34.44;24.14
4199;BME280;2113;50.946;14.610;2023-08-24T09:44:06;97344.84;;;33.93;25.36
4199;BME280;2113;50.946;14.610;2023-08-24T09:46:35;97349.84;;;34.52;23.41
4199;BME280;2113;50.946;14.610;2023-08-24T09:49:08;97349.63;;;34.08;24.43
4199;BME280;2113;50.946;14.610;2023-08-24T09:51:38;97347.19;;;32.83;27.69
4199;BME280;2113;50.946;14.610;2023-08-24T09:54:09;97340.44;;;32.89;26.40
4199;BME280;2113;50.946;14.610;2023-08-24T09:56:39;97330.28;;;35.06;23.80
4199;BME280;2113;50.946;14.610;2023-08-24T09:59:12;97332.97;;;34.01;25.25
4199;BME280;2113;50.946;14.610;2023-08-24T10:01:42;97334.00;;;33.96;26.48
4199;BME280;2113;50.946;14.610;2023-08-24T10:04:14;97316.50;;;35.77;23.71
4199;BME280;2113;50.946;14.610;2023-08-24T10:06:46;97323.34;;;34.56;24.57
4199;BME280;2113;50.946;14.610;2023-08-24T10:09:22;97318.59;;;34.28;24.66
4199;BME280;2113;50.946;14.610;2023-08-24T10:11:54;97302.06;;;35.81;22.55
4199;BME280;2113;50.946;14.610;2023-08-24T10:14:29;97310.03;;;32.69;26.16
4199;BME280;2113;50.946;14.610;2023-08-24T10:16:59;97305.00;;;33.25;24.83
4199;BME280;2113;50.946;14.610;2023-08-24T10:19:31;97304.69;;;33.27;25.42
4199;BME280;2113;50.946;14.610;2023-08-24T10:22:01;97305.94;;;32.96;26.14
4199;BME280;2113;50.946;14.610;2023-08-24T10:24:31;97301.69;;;33.89;22.85
4199;BME280;2113;50.946;14.610;2023-08-24T10:27:00;97297.94;;;34.71;22.63
4199;BME280;2113;50.946;14.610;2023-08-24T10:29:32;97296.63;;;34.53;23.70
4199;BME280;2113;50.946;14.610;2023-08-24T10:32:54;97299.50;;;32.59;27.77
4199;BME280;2113;50.946;14.610;2023-08-24T10:39:30;97303.31;;;32.16;26.81
4199;BME280;2113;50.946;14.610;2023-08-24T10:42:00;97291.97;;;32.56;25.44
4199;BME280;2113;50.946;14.610;2023-08-24T10:44:34;97291.19;;;31.67;26.64
4199;BME280;2113;50.946;14.610;2023-08-24T10:47:14;97295.28;;;31.52;27.39
4199;BME280;2113;50.946;14.610;2023-08-24T10:49:43;97293.28;;;31.79;26.28
4199;BME280;2113;50.946;14.610;2023-08-24T10:52:20;97283.84;;;31.97;30.81
4199;BME280;2113;50.946;14.610;2023-08-24T10:54:53;97279.50;;;31.66;26.79
4199;BME280;2113;50.946;14.610;2023-08-24T10:57:22;97271.47;;;31.23;27.14
4199;BME280;2113;50.946;14.610;2023-08-24T10:59:58;97269.69;;;31.18;27.40
4199;BME280;2113;50.946;14.610;2023-08-24T11:02:28;97275.31;;;31.13;26.57
4199;BME280;2113;50.946;14.610;2023-08-24T11:05:06;97276.63;;;30.12;28.50
4199;BME280;2113;50.946;14.610;2023-08-24T11:07:47;97280.66;;;30.32;28.48
4199;BME280;2113;50.946;14.610;2023-08-24T11:10:19;97275.69;;;30.77;28.42
4199;BME280;2113;50.946;14.610;2023-08-24T11:13:07;97279.81;;;31.01;27.75
4199;BME280;2113;50.946;14.610;2023-08-24T11:15:43;97267.44;;;31.21;29.56
4199;BME280;2113;50.946;14.610;2023-08-24T11:18:20;97260.31;;;30.73;29.07
4199;BME280;2113;50.946;14.610;2023-08-24T11:20:49;97263.41;;;29.88;31.97
4199;BME280;2113;50.946;14.610;2023-08-24T11:23:19;97267.03;;;29.35;30.12
4199;BME280;2113;50.946;14.610;2023-08-24T11:25:50;97265.22;;;28.32;31.08
4199;BME280;2113;50.946;14.610;2023-08-24T11:28:22;97261.16;;;27.94;31.04
4199;BME280;2113;50.946;14.610;2023-08-24T11:30:52;97259.69;;;28.60;30.09
4199;BME280;2113;50.946;14.610;2023-08-24T11:33:28;97267.53;;;28.84;31.26
4199;BME280;2113;50.946;14.610;2023-08-24T11:35:57;97266.66;;;28.52;31.88
4199;BME280;2113;50.946;14.610;2023-08-24T11:38:35;97264.13;;;28.78;31.96
4199;BME280;2113;50.946;14.610;2023-08-24T11:41:15;97259.84;;;28.99;31.45
4199;BME280;2113;50.946;14.610;2023-08-24T11:43:44;97256.13;;;28.95;30.18
4199;BME280;2113;50.946;14.610;2023-08-24T11:46:15;97250.19;;;29.24;32.53
4199;BME280;2113;50.946;14.610;2023-08-24T11:48:44;97252.34;;;29.67;31.24
4199;BME280;2113;50.946;14.610;2023-08-24T11:51:13;97250.13;;;29.78;32.17
4199;BME280;2113;50.946;14.610;2023-08-24T11:53:49;97245.38;;;29.13;31.60
4199;BME280;2113;50.946;14.610;2023-08-24T11:56:19;97241.56;;;29.22;31.33
4199;BME280;2113;50.946;14.610;2023-08-24T11:58:49;97239.81;;;28.95;34.25
4199;BME280;2113;50.946;14.610;2023-08-24T12:01:18;97227.47;;;28.67;30.96
4199;BME280;2113;50.946;14.610;2023-08-24T12:03:47;97213.91;;;28.44;32.66
4199;BME280;2113;50.946;14.610;2023-08-24T12:06:16;97209.34;;;28.31;33.56
4199;BME280;2113;50.946;14.610;2023-08-24T12:08:46;97211.28;;;28.17;33.87
4199;BME280;2113;50.946;14.610;2023-08-24T12:11:16;97216.59;;;28.22;31.06
4199;BME280;2113;50.946;14.610;2023-08-24T12:13:49;97211.69;;;28.69;33.76
4199;BME280;2113;50.946;14.610;2023-08-24T12:16:18;97213.38;;;29.10;33.43
4199;BME280;2113;50.946;14.610;2023-08-24T12:18:47;97196.44;;;30.10;30.54
4199;BME280;2113;50.946;14.610;2023-08-24T12:21:16;97199.28;;;30.30;31.92
4199;BME280;2113;50.946;14.610;2023-08-24T12:23:56;97202.84;;;31.12;30.49
4199;BME280;2113;50.946;14.610;2023-08-24T12:26:26;97183.44;;;30.50;28.42
4199;BME280;2113;50.946;14.610;2023-08-24T12:29:00;97176.53;;;30.00;32.25
4199;BME280;2113;50.946;14.610;2023-08-24T12:31:30;97164.06;;;30.43;27.99
4199;BME280;2113;50.946;14.610;2023-08-24T12:33:59;97157.63;;;29.61;29.42
4199;BME280;2113;50.946;14.610;2023-08-24T12:36:28;97158.94;;;29.89;32.36
4199;BME280;2113;50.946;14.610;2023-08-24T12:38:58;97153.81;;;29.96;30.92
4199;BME280;2113;50.946;14.610;2023-08-24T12:41:26;97157.97;;;29.19;31.03
4199;BME280;2113;50.946;14.610;2023-08-24T12:43:54;97161.47;;;29.11;32.35
4199;BME280;2113;50.946;14.610;2023-08-24T12:46:25;97154.50;;;29.36;31.43
4199;BME280;2113;50.946;14.610;2023-08-24T12:48:55;97147.00;;;28.93;32.05
4199;BME280;2113;50.946;14.610;2023-08-24T12:51:23;97144.91;;;28.68;32.73
4199;BME280;2113;50.946;14.610;2023-08-24T12:53:52;97146.91;;;29.16;33.66
4199;BME280;2113;50.946;14.610;2023-08-24T12:56:20;97149.53;;;29.38;34.47
4199;BME280;2113;50.946;14.610;2023-08-24T12:58:48;97154.28;;;29.24;32.44
4199;BME280;2113;50.946;14.610;2023-08-24T13:01:45;97157.16;;;28.88;34.20
4199;BME280;2113;50.946;14.610;2023-08-24T13:04:14;97159.72;;;29.24;35.18
4199;BME280;2113;50.946;14.610;2023-08-24T13:06:42;97155.63;;;28.95;32.70
4199;BME280;2113;50.946;14.610;2023-08-24T13:09:10;97145.88;;;29.34;34.07
4199;BME280;2113;50.946;14.610;2023-08-24T13:11:38;97139.44;;;29.30;34.90
4199;BME280;2113;50.946;14.610;2023-08-24T13:14:07;97143.59;;;28.57;35.57
4199;BME280;2113;50.946;14.610;2023-08-24T13:16:35;97138.56;;;29.04;34.26
4199;BME280;2113;50.946;14.610;2023-08-24T13:19:05;97148.25;;;29.27;35.33
4199;BME280;2113;50.946;14.610;2023-08-24T13:21:34;97136.34;;;29.54;35.35
4199;BME280;2113;50.946;14.610;2023-08-24T13:24:03;97132.38;;;29.77;34.53
4199;BME280;2113;50.946;14.610;2023-08-24T13:26:32;97125.00;;;29.78;34.31
4199;BME280;2113;50.946;14.610;2023-08-24T13:29:00;97119.44;;;30.18;34.77
4199;BME280;2113;50.946;14.610;2023-08-24T13:31:29;97118.31;;;30.19;33.30
4199;BME280;2113;50.946;14.610;2023-08-24T13:33:58;97115.91;;;29.17;34.24
4199;BME280;2113;50.946;14.610;2023-08-24T13:36:27;97106.72;;;27.88;36.11